Latest Weather Observations for Ballera

IDQ60801

Issued at 12:02 pm EST Monday 25 July 2016 (issued every 30 minutes, with the page automatically refreshed every 10 minutes)

About weather observations | Map of weather stations | Latest weather observations for QLD | Other Formats
Station Details ID: 045009 Name: BALLERA GAS FIELD Lat: -27.40 Lon: 141.81 Height: 114.5 m
Data from the previous 72 hours. | See also: Recent months at Ballera
Date/Time
EST
Temp
°C
App
Temp
°C
Dew
Point
°C
Rel
Hum
%
Delta-T
°C
Wind Press
QNH
hPa
Press
MSL
hPa
Rain since
9am
mm
Dir  Spd
km/h
Gust
km/h
Spd
kts
Gust
kts
25/12:00pm 15.4 13.1 2.6 42 5.7 E 4 9 2 5 1023.2 1023.2 0.0
25/11:30am 15.2 12.4 3.4 45 5.4 SSW 7 17 4 9 1023.5 1023.5 0.0
25/11:00am 14.0 10.0 2.9 47 5.0 SSW 13 24 7 13 1023.6 1023.6 0.0
25/10:30am 13.6 9.7 3.4 50 4.6 SSW 13 19 7 10 1023.6 1023.6 0.0
25/10:00am 13.1 8.5 3.5 52 4.3 SW 17 22 9 12 1023.5 1023.5 0.0
25/09:30am 12.0 7.4 3.5 56 3.8 SW 17 20 9 11 1023.1 1023.1 0.0
25/09:00am 10.0 6.3 2.6 60 3.2 WSW 11 15 6 8 1022.9 1022.9 0.0
25/08:30am 8.2 4.4 2.0 65 2.6 W 11 15 6 8 1022.6 1022.6 0.0
25/08:00am 6.8 2.3 1.9 71 2.0 W 15 17 8 9 1022.3 1022.2 0.0
25/07:30am 5.3 1.0 1.2 75 1.6 W 13 15 7 8 1022.1 1022.0 0.0
25/07:00am 5.4 1.1 1.1 74 1.7 W 13 15 7 8 1021.8 1021.7 0.0
25/06:30am 5.4 1.1 1.1 74 1.7 W 13 15 7 8 1021.5 1021.4 0.0
25/06:00am 6.7 2.5 1.4 69 2.1 WSW 13 17 7 9 1020.9 1020.8 0.0
25/05:30am 6.7 2.5 1.4 69 2.1 W 13 15 7 8 1021.0 1020.9 0.0
25/05:00am 6.8 2.6 1.5 69 2.1 W 13 15 7 8 1020.9 1020.8 0.0
25/04:30am 7.4 3.1 1.3 65 2.5 W 13 15 7 8 1020.6 1020.6 0.0
25/04:00am 7.9 3.7 1.5 64 2.6 W 13 13 7 7 1020.5 1020.5 0.0
25/03:30am 8.0 4.2 1.6 64 2.6 W 11 13 6 7 1020.5 1020.5 0.0
25/03:00am 8.0 4.1 1.4 63 2.7 W 11 13 6 7 1020.6 1020.6 0.0
25/02:30am 8.1 4.3 1.7 64 2.6 W 11 13 6 7 1020.5 1020.5 0.0
25/02:00am 8.2 4.3 1.4 62 2.8 WNW 11 13 6 7 1020.6 1020.6 0.0
25/01:30am 8.4 4.1 1.3 61 2.9 WNW 13 13 7 7 1020.5 1020.5 0.0
25/01:00am 8.4 4.6 1.6 62 2.8 WNW 11 13 6 7 1020.6 1020.6 0.0
25/12:30am 8.8 5.5 2.4 64 2.7 W 9 11 5 6 1020.5 1020.5 0.0
25/12:00am 8.8 4.7 2.4 64 2.7 W 13 15 7 8 1020.6 1020.6 0.0
 
Date/Time
EST
Temp
°C
App
Temp
°C
Dew
Point
°C
Rel
Hum
%
Delta-T
°C
Wind Press
QNH
hPa
Press
MSL
hPa
Rain since
9am
mm
Dir  Spd
km/h
Gust
km/h
Spd
kts
Gust
kts
24/11:30pm 9.0 4.6 2.6 64 2.7 W 15 17 8 9 1020.8 1020.7 0.0
24/11:00pm 9.6 5.9 2.2 60 3.1 WSW 11 15 6 8 1020.9 1020.8 0.0
24/10:30pm 10.8 6.3 1.9 54 3.8 WSW 15 19 8 10 1020.6 1020.6 0.0
24/10:00pm 12.0 7.2 2.5 52 4.1 WSW 17 22 9 12 1020.2 1020.2 0.0
24/09:30pm 12.3 7.6 3.3 54 4.0 WSW 17 20 9 11 1020.1 1020.1 0.0
24/09:00pm 12.5 8.2 3.2 53 4.1 WSW 15 19 8 10 1019.8 1019.8 0.0
24/08:30pm 13.4 8.7 3.2 50 4.6 WSW 17 20 9 11 1019.2 1019.2 0.0
24/08:00pm 13.5 8.8 3.0 49 4.7 W 17 20 9 11 1018.7 1018.7 0.0
24/07:30pm 14.1 9.8 3.0 47 5.0 WSW 15 19 8 10 1018.2 1018.2 0.0
24/07:00pm 15.3 10.5 2.8 43 5.6 WSW 17 19 9 10 1017.6 1017.6 0.0
24/06:30pm 16.2 11.5 2.9 41 6.1 W 17 22 9 12 1017.3 1017.3 0.0
24/06:00pm 17.1 11.9 2.7 38 6.6 W 19 26 10 14 1017.0 1017.0 0.0
24/05:30pm 18.3 12.6 2.6 35 7.2 W 22 30 12 16 1016.9 1016.9 0.0
24/05:00pm 18.7 12.6 2.5 34 7.5 WNW 24 33 13 18 1016.8 1016.8 0.0
24/04:30pm 18.9 11.6 2.7 34 7.5 W 30 37 16 20 1016.6 1016.6 0.0
24/04:00pm 19.1 12.3 3.3 35 7.4 W 28 35 15 19 1016.6 1016.6 0.0
24/03:30pm 19.5 12.7 3.2 34 7.7 W 28 44 15 24 1016.6 1016.6 0.0
24/03:00pm 19.9 13.1 3.2 33 7.9 W 28 39 15 21 1016.3 1016.3 0.0
24/02:30pm 19.1 12.6 2.9 34 7.6 W 26 33 14 18 1016.5 1016.5 0.0
24/02:00pm 19.3 13.6 3.1 34 7.6 WNW 22 30 12 16 1016.9 1016.9 0.0
24/01:30pm 18.9 13.2 3.1 35 7.4 WNW 22 33 12 18 1017.2 1017.2 0.0
24/01:00pm 18.5 13.2 2.8 35 7.3 WNW 20 30 11 16 1017.7 1017.7 0.0
24/12:30pm 17.7 12.4 3.2 38 6.7 WNW 20 28 11 15 1018.0 1018.0 0.0
24/12:00pm 17.1 11.8 3.1 39 6.5 NW 20 28 11 15 1018.5 1018.5 0.0
24/11:30am 17.0 12.1 4.0 42 6.1 NW 19 26 10 14 1019.0 1019.0 0.0
24/11:00am 16.3 11.9 5.0 47 5.4 NW 17 22 9 12 1019.5 1019.5 0.0
24/10:30am 15.5 11.0 4.3 47 5.2 NW 17 22 9 12 1019.6 1019.6 0.0
24/10:00am 15.3 11.5 3.8 46 5.3 NW 13 17 7 9 1019.6 1019.6 0.0
24/09:30am 14.8 11.3 3.6 47 5.1 NNW 11 13 6 7 1019.1 1019.1 0.0
24/09:00am 13.8 10.4 4.1 52 4.4 NW 11 15 6 8 1019.3 1019.3 0.0
24/08:30am 13.0 9.7 4.4 56 3.9 NW 11 13 6 7 1018.8 1018.8 0.0
24/08:00am 11.2 8.0 4.9 65 2.9 NW 11 13 6 7 1018.4 1018.4 0.0
24/07:30am 10.4 6.7 4.5 67 2.7 NW 13 13 7 7 1018.3 1018.3 0.0
24/07:00am 10.2 6.9 4.4 67 2.6 NW 11 13 6 7 1017.6 1017.6 0.0
24/06:30am 10.7 7.4 4.6 66 2.8 NW 11 13 6 7 1017.2 1017.2 0.0
24/06:00am 10.6 7.3 4.7 67 2.7 WNW 11 13 6 7 1017.0 1017.0 0.0
24/05:30am 10.0 6.3 4.4 68 2.5 WNW 13 13 7 7 1016.8 1016.8 0.0
24/05:00am 9.9 6.9 4.3 68 2.5 WNW 9 11 5 6 1016.7 1016.7 0.0
24/04:30am 9.9 7.3 4.1 67 2.6 WNW 7 9 4 5 1016.5 1016.5 0.0
24/04:00am 9.9 7.3 4.3 68 2.5 W 7 9 4 5 1016.5 1016.5 0.0
24/03:30am 9.6 6.3 4.6 71 2.2 WSW 11 13 6 7 1016.4 1016.4 0.0
24/03:00am 10.2 7.2 3.9 65 2.8 WSW 9 11 5 6 1016.5 1016.5 0.0
24/02:30am 10.8 7.8 4.3 64 2.9 WSW 9 11 5 6 1016.5 1016.5 0.0
24/02:00am 11.7 8.7 4.0 59 3.5 WSW 9 11 5 6 1016.7 1016.7 0.0
24/01:30am 11.8 9.0 3.1 55 3.8 WSW 7 9 4 5 1016.7 1016.7 0.0
24/01:00am 12.6 9.0 2.7 51 4.4 SW 11 13 6 7 1017.3 1017.3 0.0
24/12:30am 12.7 8.7 2.6 50 4.4 SW 13 15 7 8 1017.3 1017.3 0.0
24/12:00am 12.9 8.8 2.5 49 4.6 SW 13 17 7 9 1017.6 1017.6 0.0
 
Date/Time
EST
Temp
°C
App
Temp
°C
Dew
Point
°C
Rel
Hum
%
Delta-T
°C
Wind Press
QNH
hPa
Press
MSL
hPa
Rain since
9am
mm
Dir  Spd
km/h
Gust
km/h
Spd
kts
Gust
kts
23/11:30pm 12.3 8.6 2.5 51 4.3 SW 11 13 6 7 1017.4 1017.4 0.0
23/11:00pm 12.5 9.2 2.4 50 4.4 SW 9 11 5 6 1017.7 1017.7 0.0
23/10:30pm 12.5 9.7 2.1 49 4.5 WSW 6 7 3 4 1017.6 1017.6 0.0
23/10:00pm 12.1 9.2 2.8 53 4.1 WSW 7 7 4 4 1017.7 1017.7 0.0
23/09:30pm 12.2 8.5 2.1 50 4.4 W 11 13 6 7 1017.8 1017.8 0.0
23/09:00pm 12.8 9.0 1.5 46 4.8 SSW 11 13 6 7 1017.7 1017.7 0.0
23/08:30pm 12.3 8.0 1.3 47 4.7 SSW 13 15 7 8 1017.7 1017.7 0.0
23/08:00pm 12.4 8.2 1.4 47 4.7 SSW 13 13 7 7 1017.6 1017.6 0.0
23/07:30pm 13.0 9.6 1.7 46 4.9 SSW 9 11 5 6 1017.2 1017.2 0.0
23/07:00pm 13.0 9.1 1.4 45 5.0 SSW 11 13 6 7 1016.8 1016.8 0.0
23/06:30pm 14.2 10.8 1.8 43 5.4 SSW 9 11 5 6 1016.6 1016.6 0.0
23/06:00pm 15.2 12.2 1.7 40 5.9 SSW 7 11 4 6 1016.9 1016.9 0.0
23/05:30pm 16.7 12.9 1.6 36 6.7 SSW 11 15 6 8 1017.0 1017.0 0.0
23/05:00pm 17.1 13.2 1.1 34 7.1 SW 11 15 6 8 1016.8 1016.8 0.0
23/04:30pm 17.5 13.3 1.9 35 7.1 SW 13 20 7 11 1016.8 1016.8 0.0
23/04:00pm 17.5 13.7 1.9 35 7.0 SSW 11 17 6 9 1016.8 1016.8 0.0
23/03:30pm 17.5 13.3 1.9 35 7.1 SW 13 20 7 11 1016.7 1016.7 0.0
23/03:00pm 17.0 12.4 1.8 36 6.8 SSW 15 22 8 12 1017.1 1017.1 0.0
23/02:30pm 17.2 13.2 3.1 39 6.5 SSW 13 20 7 11 1016.8 1016.8 0.0
23/02:00pm 17.6 13.4 3.9 40 6.4 SW 15 20 8 11 1016.9 1016.9 0.0
23/01:30pm 16.9 12.8 2.1 37 6.7 S 13 19 7 10 1017.4 1017.4 0.0
23/01:00pm 17.7 14.5 3.2 38 6.7 SSW 9 22 5 12 1017.9 1017.9 0.0
23/12:30pm 16.5 12.0 2.2 38 6.5 SSW 15 22 8 12 1018.0 1018.0 0.0
23/12:00pm 16.1 11.4 2.9 41 6.0 S 17 22 9 12 1018.3 1018.3 0.0
23/11:30am 15.8 11.1 3.3 43 5.7 SSW 17 24 9 13 1018.5 1018.5 0.0
23/11:00am 15.6 10.5 3.1 43 5.7 SSW 19 24 10 13 1018.7 1018.7 0.0
23/10:30am 15.1 9.8 3.0 44 5.5 SSW 20 28 11 15 1018.6 1018.6 0.0
23/10:00am 14.7 9.4 2.9 45 5.3 SW 20 26 11 14 1018.7 1018.7 0.0
23/09:30am 14.1 7.6 2.4 45 5.2 SW 26 32 14 17 1018.5 1018.5 0.0
23/09:00am 13.6 7.4 2.2 46 5.0 SW 24 32 13 17 1018.3 1018.3 0.0
23/08:30am 13.1 8.4 3.2 51 4.4 SW 17 20 9 11 1017.9 1017.9 0.0
23/08:00am 12.1 7.0 2.8 53 4.1 SW 19 24 10 13 1017.4 1017.4 0.0
23/07:30am 11.8 6.0 2.5 53 4.1 SW 22 26 12 14 1016.9 1016.9 0.0
23/07:00am 12.1 6.7 2.3 51 4.3 SW 20 28 11 15 1016.6 1016.6 0.0
23/06:30am 12.4 6.3 2.6 51 4.3 SW 24 28 13 15 1016.0 1016.0 0.0
23/06:00am 12.9 6.4 2.7 50 4.5 SW 26 33 14 18 1015.7 1015.7 0.0
23/05:30am 13.3 7.4 3.7 52 4.4 SW 24 32 13 17 1015.0 1015.0 0.0
23/05:00am 14.2 7.3 2.8 46 5.1 SSW 28 33 15 18 1014.8 1014.7 0.0
23/04:30am 14.7 8.7 3.5 47 5.1 SW 24 32 13 17 1014.9 1014.8 0.0
23/04:00am 15.2 10.1 4.0 47 5.2 SW 20 30 11 16 1014.7 1014.6 0.0
23/03:30am 16.1 10.2 3.9 44 5.7 SW 24 33 13 18 1014.2 1014.1 0.0
23/03:00am 16.7 10.0 3.7 42 6.1 SW 28 35 15 19 1013.8 1013.7 0.0
23/02:30am 17.3 10.3 4.3 42 6.2 SW 30 39 16 21 1013.6 1013.5 0.0
23/02:00am 17.8 11.4 5.1 43 6.1 SW 28 35 15 19 1013.4 1013.3 0.0
23/01:30am 17.9 12.5 6.4 47 5.7 SW 24 33 13 18 1013.4 1013.3 0.0
23/01:16am 18.2 12.9 7.0 48 5.6 SW 24 33 13 18 1013.4 1013.3 0.0
23/01:00am 18.2 14.3 9.3 56 4.7 SW 20 30 11 16 1013.5 1013.4 0.0
23/12:30am 17.6 15.4 10.9 65 3.6 WNW 13 17 7 9 1012.9 1012.8 0.0
23/12:00am 17.5 15.8 11.1 66 3.5 W 11 13 6 7 1012.8 1012.7 0.0
 
Date/Time
EST
Temp
°C
App
Temp
°C
Dew
Point
°C
Rel
Hum
%
Delta-T
°C
Wind Press
QNH
hPa
Press
MSL
hPa
Rain since
9am
mm
Dir  Spd
km/h
Gust
km/h
Spd
kts
Gust
kts
22/11:30pm 17.8 15.7 11.1 65 3.6 W 13 15 7 8 1012.8 1012.7 0.0
22/11:00pm 18.8 16.8 11.4 62 4.1 W 13 15 7 8 1012.6 1012.5 0.0
22/10:30pm 19.7 17.2 11.2 58 4.7 WSW 15 17 8 9 1012.4 1012.3 0.0
22/10:00pm 19.3 17.9 12.3 64 3.9 W 11 17 6 9 1012.3 1012.2 0.0
22/09:30pm 20.8 19.0 12.2 58 4.8 W 13 17 7 9 1011.8 1011.7 0.0
22/09:00pm 21.3 19.0 11.6 54 5.4 WNW 15 20 8 11 1011.4 1011.4 0.0
22/08:30pm 22.8 19.8 11.8 50 6.2 NNW 19 22 10 12 1011.2 1011.2 0.0
22/08:00pm 23.3 20.2 11.7 48 6.6 NW 19 22 10 12 1010.9 1010.9 0.0
22/07:30pm 23.2 20.6 11.9 49 6.4 NW 17 19 9 10 1010.8 1010.8 0.0
22/07:00pm 23.6 21.0 12.0 48 6.6 NW 17 19 9 10 1010.6 1010.6 0.0
22/06:30pm 24.8 21.7 11.7 44 7.5 NW 19 22 10 12 1010.3 1010.3 0.0
22/06:00pm 25.9 22.8 11.6 40 8.2 NW 19 24 10 13 1010.1 1010.1 0.0
22/05:30pm 27.4 23.7 11.4 37 9.2 NW 22 28 12 15 1010.0 1010.0 0.0
22/05:00pm 28.2 23.4 11.7 36 9.6 NW 28 33 15 18 1010.0 1010.0 0.0
22/04:30pm 28.8 23.5 11.4 34 10.1 WNW 30 37 16 20 1010.0 1010.0 0.0
22/04:00pm 29.0 23.3 11.1 33 10.3 WNW 32 41 17 22 1010.1 1010.1 0.0
22/03:30pm 29.0 23.4 11.6 34 10.1 NW 32 43 17 23 1010.3 1010.3 0.0
22/03:00pm 28.7 23.0 11.3 34 10.0 NW 32 41 17 22 1010.4 1010.4 0.0
22/02:30pm 28.8 23.3 11.8 35 9.9 NW 32 39 17 21 1010.7 1010.7 0.0
22/02:00pm 28.8 24.2 12.2 35 9.7 NW 28 35 15 19 1011.0 1011.0 0.0
22/01:30pm 28.3 23.4 12.6 38 9.2 NW 30 39 16 21 1011.4 1011.4 0.0
22/01:00pm 27.3 21.6 12.9 41 8.5 NW 35 46 19 25 1012.0 1011.9 0.0
22/12:30pm 27.4 22.5 13.7 43 8.2 NW 32 43 17 23 1012.6 1012.5 0.0

Other Formats:

Comma delimited format used in spreadsheet applications
http://www.bom.gov.au/fwo/IDQ60801/IDQ60801.95487.axf

JavaScript Object Notation format (JSON) in row-major order
http://www.bom.gov.au/fwo/IDQ60801/IDQ60801.95487.json